Time;durP1;ratioP1;P1;durP2;ratioP2;P2;SDS_P1;SDS_P2;PMS_P1;PMS_P2;Temp;Humidity;BMP_temperature;BMP_pressure;BME280_temperature;BME280_humidity;BME280_pressure;Samples;Min_cycle;Max_cycle;Signal;HPM_P1;HPM_P2
2022/12/25 00:00:07;;;;;;;9.35;3.75;;;;;;;7.03;100.00;100710.84;688521;28;1072;-64
2022/12/25 00:00:27;;;;;;;9.23;3.50;;;;;;;7.01;100.00;100712.59;689263;28;785;-65
2022/12/25 00:00:47;;;;;;;8.67;3.40;;;;;;;7.00;100.00;100709.09;687262;28;4582;-64
2022/12/25 00:01:10;;;;;;;9.98;3.83;;;;;;;6.96;100.00;100709.91;687276;28;887;-64
2022/12/25 00:01:31;;;;;;;11.23;3.88;;;;;;;6.92;100.00;100708.16;687691;28;1570;-65
2022/12/25 00:01:51;;;;;;;9.77;3.60;;;;;;;6.89;100.00;100706.38;687993;28;950;-64
2022/12/25 00:02:12;;;;;;;10.85;3.70;;;;;;;6.90;100.00;100709.88;688029;28;999;-64
2022/12/25 00:02:32;;;;;;;9.77;3.70;;;;;;;6.87;100.00;100709.81;689376;28;793;-64
2022/12/25 00:02:53;;;;;;;10.07;3.72;;;;;;;6.85;100.00;100707.19;688265;28;961;-64
2022/12/25 00:03:13;;;;;;;11.48;3.92;;;;;;;6.86;100.00;100710.69;687316;28;1170;-64
2022/12/25 00:03:34;;;;;;;9.60;3.77;;;;;;;6.88;100.00;100711.56;687632;28;876;-64
2022/12/25 00:03:55;;;;;;;9.07;3.57;;;;;;;6.86;100.00;100713.28;687146;28;4523;-64
2022/12/25 00:04:18;;;;;;;10.63;3.72;;;;;;;6.85;100.00;100709.78;688502;28;982;-64
2022/12/25 00:04:38;;;;;;;10.85;3.60;;;;;;;6.86;100.00;100708.94;688916;28;1236;-64
2022/12/25 00:04:59;;;;;;;12.17;3.63;;;;;;;6.84;100.00;100709.78;689350;28;997;-64
2022/12/25 00:05:19;;;;;;;10.40;4.00;;;;;;;6.82;100.00;100709.78;689002;28;1095;-64
2022/12/25 00:05:39;;;;;;;9.73;3.90;;;;;;;6.81;100.00;100708.00;685073;28;2422;-65
2022/12/25 00:06:00;;;;;;;8.60;3.50;;;;;;;6.81;100.00;100711.50;686072;28;2337;-64
2022/12/25 00:06:20;;;;;;;9.00;3.95;;;;;;;6.78;100.00;100716.69;687064;28;1232;-64
2022/12/25 00:06:40;;;;;;;9.17;4.07;;;;;;;6.81;100.00;100713.22;682728;28;4521;-64
2022/12/25 00:07:01;;;;;;;8.70;3.65;;;;;;;6.93;100.00;100720.28;684466;28;1179;-64
2022/12/25 00:07:21;;;;;;;10.30;4.07;;;;;;;6.94;100.00;100714.25;683816;28;947;-64
2022/12/25 00:07:42;;;;;;;12.20;3.80;;;;;;;6.95;100.00;100718.56;683575;28;877;-65
2022/12/25 00:08:02;;;;;;;11.33;3.87;;;;;;;6.94;100.00;100717.69;688759;28;1205;-63
2022/12/25 00:08:23;;;;;;;9.70;3.70;;;;;;;6.95;100.00;100723.75;688793;28;1207;-64
2022/12/25 00:08:44;;;;;;;11.32;3.92;;;;;;;6.92;100.00;100719.44;689813;28;1157;-64
2022/12/25 00:09:04;;;;;;;9.07;3.50;;;;;;;6.92;100.00;100721.13;688900;28;981;-64
2022/12/25 00:09:25;;;;;;;9.73;3.47;;;;;;;6.90;100.00;100715.06;689323;28;1977;-63
2022/12/25 00:09:46;;;;;;;10.77;3.80;;;;;;;6.94;100.00;100712.50;687801;28;4346;-64
2022/12/25 00:10:08;;;;;;;10.90;3.92;;;;;;;6.96;100.00;100717.72;688987;28;1224;-64
2022/12/25 00:10:29;;;;;;;13.13;4.10;;;;;;;6.98;100.00;100716.88;689247;28;978;-65
2022/12/25 00:11:00;;;;;;;11.98;4.20;;;;;;;6.98;100.00;100716.88;689617;28;962;-64
2022/12/25 00:11:21;;;;;;;11.20;4.10;;;;;;;6.98;100.00;100721.22;688085;28;1459;-64
2022/12/25 00:11:42;;;;;;;10.50;3.95;;;;;;;6.95;100.00;100713.38;687907;28;1293;-64
2022/12/25 00:12:03;;;;;;;11.15;4.13;;;;;;;6.91;100.00;100712.47;688705;28;1105;-63
2022/12/25 00:12:24;;;;;;;11.98;4.13;;;;;;;6.89;100.00;100719.38;688888;28;805;-64
2022/12/25 00:12:44;;;;;;;10.07;3.70;;;;;;;6.86;100.00;100714.16;685457;28;4369;-64
2022/12/25 00:13:05;;;;;;;9.32;3.72;;;;;;;6.88;100.00;100716.75;687548;28;980;-64
2022/12/25 00:13:26;;;;;;;9.33;3.70;;;;;;;6.86;100.00;100718.47;688445;28;1150;-64
2022/12/25 00:13:47;;;;;;;11.15;3.80;;;;;;;6.85;100.00;100714.13;685420;28;1201;-64
2022/12/25 00:14:07;;;;;;;9.65;3.65;;;;;;;6.85;100.00;100714.13;686067;28;1034;-64
2022/12/25 00:14:28;;;;;;;9.07;3.60;;;;;;;6.86;100.00;100718.47;688312;28;1246;-64
2022/12/25 00:14:48;;;;;;;9.15;4.15;;;;;;;6.84;100.00;100713.28;688035;28;1027;-65
2022/12/25 00:15:09;;;;;;;9.83;3.87;;;;;;;6.81;100.00;100708.91;686006;28;1041;-64
2022/12/25 00:15:30;;;;;;;11.43;3.72;;;;;;;6.80;100.00;100711.50;688593;28;1226;-64
2022/12/25 00:15:50;;;;;;;12.03;4.07;;;;;;;6.80;100.00;100706.28;687954;28;4380;-64
2022/12/25 00:16:16;;;;;;;11.47;3.87;;;;;;;6.79;100.00;100715.78;687679;28;1245;-66
2022/12/25 00:16:37;;;;;;;11.77;4.10;;;;;;;6.79;100.00;100715.78;689204;28;996;-64
2022/12/25 00:16:57;;;;;;;9.60;3.83;;;;;;;6.82;100.00;100712.38;688988;28;1144;-64
2022/12/25 00:17:18;;;;;;;9.53;3.67;;;;;;;6.79;100.00;100713.19;688927;28;903;-64
2022/12/25 00:17:38;;;;;;;10.40;3.83;;;;;;;6.80;100.00;100708.91;688850;28;954;-63
2022/12/25 00:17:58;;;;;;;9.40;3.80;;;;;;;6.82;100.00;100717.56;688825;28;923;-64
2022/12/25 00:18:19;;;;;;;9.52;3.67;;;;;;;6.83;100.00;100714.13;687575;28;1221;-65
2022/12/25 00:18:39;;;;;;;9.57;3.60;;;;;;;6.81;100.00;100711.50;688587;28;911;-64
2022/12/25 00:19:00;;;;;;;10.70;3.80;;;;;;;6.80;100.00;100714.09;688120;28;4257;-64
2022/12/25 00:19:20;;;;;;;10.73;3.70;;;;;;;6.79;100.00;100708.00;688557;28;824;-63
2022/12/25 00:19:40;;;;;;;9.32;3.53;;;;;;;6.87;100.00;100707.22;688829;28;793;-64
2022/12/25 00:20:01;;;;;;;10.97;3.90;;;;;;;6.85;100.00;100709.78;687244;28;3735;-64
2022/12/25 00:20:21;;;;;;;10.70;3.60;;;;;;;6.84;100.00;100714.97;689018;28;1435;-63
2022/12/25 00:20:42;;;;;;;9.17;3.90;;;;;;;6.81;100.00;100714.09;688325;28;896;-64
2022/12/25 00:21:05;;;;;;;10.10;4.30;;;;;;;6.84;100.00;100714.97;688638;28;1147;-65
2022/12/25 00:21:26;;;;;;;10.00;3.80;;;;;;;6.83;100.00;100714.13;689596;28;867;-65
2022/12/25 00:21:46;;;;;;;11.00;3.83;;;;;;;6.81;100.00;100706.31;689436;28;4310;-63
2022/12/25 00:22:07;;;;;;;11.23;3.80;;;;;;;6.79;100.00;100710.59;687455;28;996;-64
2022/12/25 00:22:28;;;;;;;10.18;3.47;;;;;;;6.77;100.00;100709.72;688623;28;781;-63
2022/12/25 00:22:49;;;;;;;8.45;3.30;;;;;;;6.80;100.00;100701.97;688552;28;1220;-64
2022/12/25 00:23:09;;;;;;;10.52;3.60;;;;;;;6.84;100.00;100710.69;685904;28;1227;-64
2022/12/25 00:23:30;;;;;;;10.00;3.73;;;;;;;6.84;100.00;100704.59;690131;28;1039;-63
2022/12/25 00:23:56;;;;;;;10.82;3.67;;;;;;;6.94;100.00;100711.66;690608;28;995;-64
2022/12/25 00:24:16;;;;;;;8.80;3.53;;;;;;;6.94;100.00;100712.50;686532;28;1034;-65
2022/12/25 00:24:36;;;;;;;9.80;3.70;;;;;;;6.95;100.00;100710.78;685672;28;970;-64
2022/12/25 00:24:57;;;;;;;8.18;3.38;;;;;;;7.05;100.00;100710.03;688456;28;4434;-64
2022/12/25 00:25:17;;;;;;;10.33;3.60;;;;;;;7.09;100.00;100705.72;686962;28;1420;-65
2022/12/25 00:25:38;;;;;;;8.30;3.87;;;;;;;7.07;100.00;100708.31;686589;28;1200;-64
2022/12/25 00:26:03;;;;;;;9.30;3.67;;;;;;;7.01;100.00;100705.66;686925;28;1205;-64
2022/12/25 00:26:25;;;;;;;8.35;3.65;;;;;;;6.98;100.00;100705.63;688725;28;734;-64
2022/12/25 00:26:46;;;;;;;10.45;3.67;;;;;;;6.95;100.00;100703.88;686643;28;1358;-64
2022/12/25 00:27:06;;;;;;;9.97;3.77;;;;;;;6.94;100.00;100701.25;685148;28;1209;-64
2022/12/25 00:27:26;;;;;;;10.25;3.70;;;;;;;6.99;100.00;100710.84;683249;28;1484;-64
2022/12/25 00:27:47;;;;;;;9.03;3.43;;;;;;;6.96;100.00;100709.91;680550;29;4311;-64
2022/12/25 00:28:07;;;;;;;11.23;3.70;;;;;;;6.93;100.00;100705.56;681257;28;1096;-64
2022/12/25 00:28:28;;;;;;;8.03;3.53;;;;;;;6.91;100.00;100703.78;680927;29;1142;-64
2022/12/25 00:28:55;;;;;;;8.82;3.50;;;;;;;6.91;100.00;100706.38;681740;28;1608;-64
2022/12/25 00:29:15;;;;;;;8.50;3.65;;;;;;;6.94;100.00;100703.84;685805;28;2003;-64
2022/12/25 00:29:35;;;;;;;9.30;3.70;;;;;;;6.94;100.00;100709.03;687338;28;940;-64
2022/12/25 00:29:56;;;;;;;9.43;3.90;;;;;;;6.92;100.00;100708.16;689594;28;927;-64
2022/12/25 00:30:16;;;;;;;10.73;3.90;;;;;;;6.88;100.00;100716.75;690184;28;1600;-64
2022/12/25 00:30:39;;;;;;;10.43;3.70;;;;;;;6.89;100.00;100715.91;689963;28;969;-65
2022/12/25 00:31:04;;;;;;;9.00;3.50;;;;;;;6.88;100.00;100714.16;688804;28;4681;-64
2022/12/25 00:31:25;;;;;;;8.80;3.45;;;;;;;6.88;100.00;100711.56;690754;28;817;-64
2022/12/25 00:31:45;;;;;;;9.98;3.65;;;;;;;6.86;100.00;100713.28;690000;28;879;-64
2022/12/25 00:32:05;;;;;;;10.13;3.72;;;;;;;6.86;100.00;100721.94;686944;28;1275;-64
2022/12/25 00:32:26;;;;;;;12.70;4.00;;;;;;;6.86;100.00;100716.75;686746;28;908;-64
2022/12/25 00:32:46;;;;;;;10.20;3.40;;;;;;;6.86;100.00;100718.47;686295;28;939;-64
2022/12/25 00:33:07;;;;;;;10.23;3.30;;;;;;;6.84;100.00;100713.28;686985;28;1265;-64
2022/12/25 00:33:27;;;;;;;12.00;3.75;;;;;;;6.86;100.00;100716.75;687855;28;826;-64
2022/12/25 00:33:49;;;;;;;11.30;3.87;;;;;;;6.86;100.00;100719.34;687012;28;4619;-63
2022/12/25 00:34:09;;;;;;;9.98;3.58;;;;;;;6.93;100.00;100717.69;688651;28;1189;-64
2022/12/25 00:34:30;;;;;;;10.10;3.60;;;;;;;7.05;100.00;100715.22;690297;28;1097;-64
2022/12/25 00:34:50;;;;;;;12.07;4.20;;;;;;;7.06;100.00;100716.97;686896;28;902;-64
2022/12/25 00:35:10;;;;;;;12.43;3.80;;;;;;;7.03;100.00;100714.31;687169;28;1207;-64
2022/12/25 00:35:31;;;;;;;9.57;3.60;;;;;;;7.01;100.00;100716.06;686383;28;1589;-64
2022/12/25 00:35:58;;;;;;;8.77;3.58;;;;;;;6.98;100.00;100713.44;686621;28;1444;-64
2022/12/25 00:36:23;;;;;;;8.57;3.70;;;;;;;6.95;100.00;100713.38;682690;28;925;-64
2022/12/25 00:36:44;;;;;;;8.52;3.42;;;;;;;6.91;100.00;100712.47;685972;28;4372;-64
2022/12/25 00:37:04;;;;;;;9.30;3.60;;;;;;;6.90;100.00;100709.88;687129;28;1416;-64
2022/12/25 00:37:24;;;;;;;7.85;3.47;;;;;;;6.88;100.00;100712.44;687403;28;829;-65
2022/12/25 00:37:45;;;;;;;9.90;3.70;;;;;;;6.88;100.00;100714.16;686943;28;877;-64
2022/12/25 00:38:06;;;;;;;10.20;3.77;;;;;;;6.86;100.00;100708.94;686850;28;1065;-64
2022/12/25 00:38:26;;;;;;;12.40;4.10;;;;;;;6.86;100.00;100708.94;689018;28;964;-64
2022/12/25 00:38:47;;;;;;;8.95;3.63;;;;;;;6.86;100.00;100713.28;689203;28;5002;-64
2022/12/25 00:39:07;;;;;;;8.38;3.40;;;;;;;6.83;100.00;100714.13;688493;28;1142;-64
2022/12/25 00:39:28;;;;;;;8.33;3.40;;;;;;;6.83;100.00;100711.53;690126;28;812;-64
2022/12/25 00:39:48;;;;;;;9.93;3.50;;;;;;;6.84;100.00;100714.97;688331;28;4547;-64
2022/12/25 00:40:09;;;;;;;9.50;3.70;;;;;;;6.92;100.00;100718.53;689236;28;1048;-63
2022/12/25 00:40:29;;;;;;;8.82;3.67;;;;;;;6.97;100.00;100711.66;689926;28;1239;-64
2022/12/25 00:40:50;;;;;;;9.27;3.60;;;;;;;6.93;100.00;100710.75;689076;28;892;-64
2022/12/25 00:41:17;;;;;;;12.43;3.60;;;;;;;6.90;100.00;100717.66;688290;28;1223;-64
2022/12/25 00:42:19;;;;;;;8.32;3.75;;;;;;;6.85;100.00;100712.41;689450;28;1397;-64
2022/12/25 00:42:39;;;;;;;9.13;3.65;;;;;;;6.86;100.00;100718.47;686514;28;1418;-65
2022/12/25 00:42:59;;;;;;;9.97;3.30;;;;;;;6.86;100.00;100714.16;684481;28;4362;-64
2022/12/25 00:43:20;;;;;;;9.00;3.53;;;;;;;6.84;100.00;100709.78;685823;28;928;-64
2022/12/25 00:43:41;;;;;;;9.35;3.70;;;;;;;6.86;100.00;100708.09;686772;28;837;-64
2022/12/25 00:44:01;;;;;;;10.35;4.10;;;;;;;6.98;100.00;100706.50;687705;28;996;-64
2022/12/25 00:44:22;;;;;;;10.03;4.03;;;;;;;7.01;100.00;100708.25;688803;28;908;-64
2022/12/25 00:44:42;;;;;;;10.52;3.95;;;;;;;7.07;100.00;100715.25;688601;28;860;-63
2022/12/25 00:45:04;;;;;;;9.20;4.27;;;;;;;7.07;100.00;100708.31;689206;28;893;-64
2022/12/25 00:45:25;;;;;;;9.35;3.72;;;;;;;7.05;100.00;100711.72;689465;28;1047;-64
2022/12/25 00:45:59;;;;;;;9.87;3.40;;;;;;;7.01;100.00;100705.66;689163;28;4373;-65
2022/12/25 00:46:19;;;;;;;9.40;3.75;;;;;;;6.99;100.00;100710.84;688878;28;1240;-64
2022/12/25 00:46:41;;;;;;;10.73;3.70;;;;;;;6.96;100.00;100708.22;688306;28;1013;-64
2022/12/25 00:47:01;;;;;;;10.60;3.53;;;;;;;6.94;100.00;100709.91;687032;28;1026;-65
2022/12/25 00:47:22;;;;;;;9.70;3.83;;;;;;;6.93;100.00;100710.75;686030;28;1185;-64
2022/12/25 00:47:42;;;;;;;8.48;3.55;;;;;;;6.92;100.00;100715.94;686631;28;857;-64
2022/12/25 00:48:02;;;;;;;9.87;3.40;;;;;;;6.92;100.00;100721.13;687129;28;1144;-64
2022/12/25 00:48:24;;;;;;;11.30;3.47;;;;;;;6.91;100.00;100716.78;687978;28;971;-64
2022/12/25 00:48:46;;;;;;;10.50;3.50;;;;;;;6.90;100.00;100720.25;688405;28;4512;-64
2022/12/25 00:49:07;;;;;;;9.55;3.67;;;;;;;6.89;100.00;100714.19;689621;28;1220;-64
2022/12/25 00:49:27;;;;;;;10.38;3.55;;;;;;;6.88;100.00;100716.75;689648;28;1918;-65
2022/12/25 00:49:48;;;;;;;10.07;3.67;;;;;;;6.88;100.00;100714.16;689146;28;1053;-64
2022/12/25 00:50:09;;;;;;;9.45;3.60;;;;;;;6.88;100.00;100719.34;689260;28;975;-64
2022/12/25 00:50:29;;;;;;;7.50;3.20;;;;;;;6.88;100.00;100717.66;689110;28;828;-65
2022/12/25 00:50:56;;;;;;;9.95;3.55;;;;;;;6.88;100.00;100715.06;689382;28;1100;-64
2022/12/25 00:51:16;;;;;;;7.25;3.13;;;;;;;6.85;100.00;100721.94;686163;28;1456;-64
2022/12/25 00:51:37;;;;;;;8.50;3.57;;;;;;;6.85;100.00;100716.72;686890;28;964;-64
2022/12/25 00:51:57;;;;;;;9.95;3.67;;;;;;;6.85;100.00;100715.00;687499;28;4386;-65
2022/12/25 00:52:18;;;;;;;10.97;3.80;;;;;;;6.85;100.00;100711.53;688602;28;1275;-64
2022/12/25 00:52:38;;;;;;;10.95;3.97;;;;;;;6.85;100.00;100715.00;687264;28;884;-64
2022/12/25 00:52:58;;;;;;;9.40;3.77;;;;;;;6.84;100.00;100714.97;685932;28;1232;-64
2022/12/25 00:53:19;;;;;;;10.67;3.87;;;;;;;6.85;100.00;100716.72;690599;28;782;-65
2022/12/25 00:53:39;;;;;;;10.25;3.72;;;;;;;6.85;100.00;100712.41;690434;28;797;-64
2022/12/25 00:53:59;;;;;;;10.13;3.73;;;;;;;6.85;100.00;100711.53;689037;28;1010;-65
2022/12/25 00:54:20;;;;;;;8.70;3.30;;;;;;;6.84;100.00;100710.69;689133;28;880;-65
2022/12/25 00:54:40;;;;;;;8.50;3.60;;;;;;;6.86;100.00;100708.09;685601;28;4334;-65
2022/12/25 00:55:01;;;;;;;9.55;3.50;;;;;;;6.86;100.00;100714.16;686093;28;1049;-65
2022/12/25 00:55:21;;;;;;;8.40;3.40;;;;;;;6.86;100.00;100706.34;685683;28;865;-64
2022/12/25 00:55:42;;;;;;;8.50;3.28;;;;;;;6.86;100.00;100714.16;686878;28;864;-65
2022/12/25 00:56:04;;;;;;;9.60;3.63;;;;;;;6.87;100.00;100704.63;685677;28;917;-65
2022/12/25 00:56:25;;;;;;;10.02;3.70;;;;;;;6.86;100.00;100708.09;689428;28;1541;-64
2022/12/25 00:56:46;;;;;;;9.00;3.50;;;;;;;6.81;100.00;100706.31;687909;28;908;-65
2022/12/25 00:57:06;;;;;;;9.43;3.30;;;;;;;6.82;100.00;100714.97;688856;28;1350;-65
2022/12/25 00:57:26;;;;;;;9.30;3.50;;;;;;;6.82;100.00;100710.63;690838;28;959;-65
2022/12/25 00:57:47;;;;;;;6.80;3.20;;;;;;;6.84;100.00;100710.69;688982;28;4376;-65
2022/12/25 00:58:07;;;;;;;8.82;3.38;;;;;;;6.88;100.00;100708.97;688402;28;1133;-65
2022/12/25 00:58:30;;;;;;;10.40;3.70;;;;;;;6.89;100.00;100702.91;689291;28;856;-65
2022/12/25 00:58:52;;;;;;;10.88;3.60;;;;;;;6.91;100.00;100716.78;689421;28;929;-65
2022/12/25 00:59:13;;;;;;;10.27;3.70;;;;;;;6.98;100.00;100713.44;688717;28;1407;-64
2022/12/25 00:59:33;;;;;;;10.95;3.72;;;;;;;7.02;100.00;100710.00;687471;28;1267;-64
2022/12/25 00:59:54;;;;;;;11.98;3.78;;;;;;;7.02;100.00;100712.59;689178;28;812;-65
2022/12/25 01:00:14;;;;;;;9.80;3.50;;;;;;;7.02;100.00;100710.00;689311;28;1209;-64
2022/12/25 01:00:35;;;;;;;9.63;3.45;;;;;;;7.06;100.00;100706.56;688867;28;773;-64
2022/12/25 01:00:55;;;;;;;8.90;3.63;;;;;;;7.06;100.00;100710.88;688519;28;4274;-66
2022/12/25 01:01:16;;;;;;;8.88;3.70;;;;;;;7.05;100.00;100712.63;688750;28;1584;-65
2022/12/25 01:01:37;;;;;;;7.83;3.20;;;;;;;7.03;100.00;100711.72;687886;28;865;-64
2022/12/25 01:02:22;;;;;;;8.60;3.30;;;;;;;7.02;100.00;100707.41;689383;28;1090;-64
2022/12/25 01:02:37;;;;;;;8.60;3.28;;;;;;;7.05;100.00;100712.63;688600;28;1762;-65
2022/12/25 01:02:58;;;;;;;9.73;3.47;;;;;;;7.05;100.00;100704.81;688907;28;1107;-65
2022/12/25 01:03:18;;;;;;;8.53;3.37;;;;;;;7.05;100.00;100710.03;688542;28;841;-65
2022/12/25 01:03:38;;;;;;;8.60;3.47;;;;;;;7.05;100.00;100716.94;688075;28;894;-64
2022/12/25 01:03:59;;;;;;;8.53;3.77;;;;;;;7.05;100.00;100714.34;688686;28;4417;-64
2022/12/25 01:04:19;;;;;;;8.90;3.57;;;;;;;7.06;100.00;100706.56;690027;28;1160;-65
2022/12/25 01:04:40;;;;;;;9.63;3.50;;;;;;;7.06;100.00;100709.19;687476;28;1305;-65
2022/12/25 01:05:00;;;;;;;10.20;3.73;;;;;;;7.05;100.00;100707.44;688881;28;982;-65
2022/12/25 01:05:20;;;;;;;9.43;3.70;;;;;;;7.09;100.00;100710.91;688767;28;916;-65
2022/12/25 01:05:41;;;;;;;9.25;3.90;;;;;;;7.09;100.00;100711.81;688864;28;924;-65
2022/12/25 01:06:05;;;;;;;8.23;3.60;;;;;;;7.08;100.00;100706.59;689189;28;1089;-65
2022/12/25 01:06:26;;;;;;;8.00;3.47;;;;;;;7.08;100.00;100715.25;688245;28;1339;-64
2022/12/25 01:06:46;;;;;;;9.32;3.60;;;;;;;7.08;100.00;100712.66;688752;28;4349;-65
2022/12/25 01:07:06;;;;;;;8.00;3.50;;;;;;;7.08;100.00;100710.06;688976;28;968;-65
2022/12/25 01:07:27;;;;;;;7.97;3.57;;;;;;;7.12;100.00;100716.16;688801;28;936;-65
2022/12/25 01:07:47;;;;;;;9.23;3.73;;;;;;;7.14;100.00;100712.72;689335;28;951;-65
2022/12/25 01:08:08;;;;;;;9.70;3.47;;;;;;;7.13;100.00;100720.47;687751;28;1051;-65
2022/12/25 01:08:31;;;;;;;10.00;3.53;;;;;;;7.16;100.00;100723.13;689189;28;888;-65
2022/12/25 01:10:21;;;;;;;8.02;3.58;;;;;;;7.16;100.00;100716.19;688547;28;5781;-65
2022/12/25 01:10:42;;;;;;;9.23;3.50;;;;;;;7.15;100.00;100717.06;689173;28;947;-65
2022/12/25 01:11:05;;;;;;;9.27;3.80;;;;;;;7.15;100.00;100722.25;689726;28;916;-65
2022/12/25 01:11:26;;;;;;;10.68;3.70;;;;;;;7.14;100.00;100717.94;689313;28;1297;-65
2022/12/25 01:11:46;;;;;;;9.50;3.50;;;;;;;7.11;100.00;100715.28;688681;28;995;-66
2022/12/25 01:12:07;;;;;;;8.07;3.50;;;;;;;7.15;100.00;100711.00;688008;28;940;-65
2022/12/25 01:12:27;;;;;;;7.87;3.43;;;;;;;7.19;100.00;100719.72;688405;28;814;-64
2022/12/25 01:12:49;;;;;;;8.60;3.78;;;;;;;7.13;100.00;100716.19;687320;28;4281;-65
2022/12/25 01:13:09;;;;;;;7.85;3.67;;;;;;;7.13;100.00;100718.78;688773;28;1098;-64
2022/12/25 01:13:31;;;;;;;7.93;3.43;;;;;;;7.11;100.00;100715.28;690469;28;836;-65
2022/12/25 01:13:51;;;;;;;7.93;3.30;;;;;;;7.14;100.00;100717.94;689354;28;983;-65
2022/12/25 01:14:11;;;;;;;7.07;3.30;;;;;;;7.16;100.00;100712.75;689018;28;1385;-65
2022/12/25 01:14:32;;;;;;;7.13;3.30;;;;;;;7.16;100.00;100713.59;687711;28;749;-65
2022/12/25 01:14:52;;;;;;;8.02;3.33;;;;;;;7.16;100.00;100718.81;688703;28;1003;-64
2022/12/25 01:15:13;;;;;;;8.67;3.50;;;;;;;7.19;100.00;100711.91;688859;28;1235;-65
2022/12/25 01:15:33;;;;;;;9.70;3.70;;;;;;;7.18;100.00;100718.81;688792;28;932;-64
2022/12/25 01:15:53;;;;;;;9.77;3.50;;;;;;;7.16;100.00;100707.53;688736;28;4557;-64
2022/12/25 01:16:15;;;;;;;8.87;3.43;;;;;;;7.21;100.00;100715.38;688663;28;3581;-65
2022/12/25 01:16:35;;;;;;;8.02;3.42;;;;;;;7.24;100.00;100721.50;684664;28;1372;-64
2022/12/25 01:16:56;;;;;;;9.18;3.45;;;;;;;7.30;100.00;100720.69;685221;28;1058;-65
2022/12/25 01:17:16;;;;;;;8.97;3.40;;;;;;;7.39;100.00;100719.88;685844;28;936;-65
2022/12/25 01:17:36;;;;;;;9.80;3.50;;;;;;;7.46;100.00;100725.16;686540;28;857;-65
2022/12/25 01:17:57;;;;;;;8.35;3.40;;;;;;;7.45;100.00;100720.81;685800;28;1015;-65
2022/12/25 01:18:18;;;;;;;8.50;3.20;;;;;;;7.42;100.00;100727.69;687193;28;1432;-65
2022/12/25 01:18:39;;;;;;;8.13;3.30;;;;;;;7.43;100.00;100729.47;689645;28;1377;-64
2022/12/25 01:18:59;;;;;;;9.53;3.40;;;;;;;7.41;100.00;100724.25;688465;28;4285;-65
2022/12/25 01:19:20;;;;;;;9.75;3.28;;;;;;;7.38;100.00;100724.22;690330;28;924;-65
2022/12/25 01:19:40;;;;;;;9.57;3.23;;;;;;;7.39;100.00;100730.28;688502;28;1018;-65
2022/12/25 01:20:00;;;;;;;7.82;3.42;;;;;;;7.36;100.00;100723.31;688691;28;1268;-65
2022/12/25 01:20:21;;;;;;;6.90;3.30;;;;;;;7.35;100.00;100726.78;689124;28;952;-65
2022/12/25 01:20:41;;;;;;;7.50;3.10;;;;;;;7.33;100.00;100723.28;687369;28;879;-65
2022/12/25 01:21:09;;;;;;;7.30;3.07;;;;;;;7.30;100.00;100729.34;688865;28;1023;-65
2022/12/25 01:21:30;;;;;;;9.65;3.30;;;;;;;7.28;100.00;100723.25;687946;28;1069;-65
2022/12/25 01:21:51;;;;;;;9.00;3.35;;;;;;;7.26;100.00;100718.91;688277;28;4591;-65
2022/12/25 01:22:11;;;;;;;9.10;3.22;;;;;;;7.24;100.00;100718.00;689326;28;1007;-65
2022/12/25 01:22:33;;;;;;;8.48;3.35;;;;;;;7.24;100.00;100731.00;686274;28;936;-65
2022/12/25 01:22:53;;;;;;;8.03;3.57;;;;;;;7.28;100.00;100722.38;688225;28;975;-65
2022/12/25 01:23:14;;;;;;;8.63;3.72;;;;;;;7.31;100.00;100727.59;686592;28;1450;-65
2022/12/25 01:23:35;;;;;;;7.72;3.17;;;;;;;7.41;100.00;100726.00;687661;28;1476;-65
2022/12/25 01:23:56;;;;;;;8.37;3.30;;;;;;;7.40;100.00;100722.50;686575;28;1102;-65
2022/12/25 01:24:17;;;;;;;9.43;3.33;;;;;;;7.36;100.00;100725.91;687389;28;810;-65
2022/12/25 01:24:37;;;;;;;9.00;3.20;;;;;;;7.35;100.00;100720.72;685757;28;1011;-64
2022/12/25 01:24:58;;;;;;;9.50;3.10;;;;;;;7.33;100.00;100725.91;685009;28;4426;-65
2022/12/25 01:25:18;;;;;;;8.60;3.17;;;;;;;7.40;100.00;100726.84;689147;28;1490;-65
2022/12/25 01:25:39;;;;;;;7.38;3.20;;;;;;;7.48;100.00;100719.97;691043;28;955;-65
2022/12/25 01:26:04;;;;;;;7.30;3.53;;;;;;;7.53;100.00;100731.28;687021;28;1028;-64
2022/12/25 01:26:26;;;;;;;7.93;3.13;;;;;;;7.60;100.00;100724.41;689679;28;825;-64
2022/12/25 01:26:46;;;;;;;7.35;2.90;;;;;;;7.59;100.00;100722.66;689547;28;1307;-65
2022/12/25 01:27:06;;;;;;;7.88;3.15;;;;;;;7.52;100.00;100721.75;687931;28;1449;-64
2022/12/25 01:27:27;;;;;;;7.20;3.10;;;;;;;7.65;100.00;100722.72;686448;28;1108;-65
2022/12/25 01:27:47;;;;;;;7.63;3.03;;;;;;;7.60;100.00;100714.88;686425;28;4642;-65
2022/12/25 01:28:08;;;;;;;7.07;3.07;;;;;;;7.57;100.00;100724.38;686459;28;1142;-65
2022/12/25 01:28:29;;;;;;;7.35;3.05;;;;;;;7.55;100.00;100723.50;685467;28;1217;-65
2022/12/25 01:28:50;;;;;;;6.50;2.92;;;;;;;7.52;100.00;100726.94;686898;28;963;-65
2022/12/25 01:29:10;;;;;;;9.68;2.90;;;;;;;7.49;100.00;100721.69;687987;28;1233;-64
2022/12/25 01:29:31;;;;;;;9.93;2.90;;;;;;;7.53;100.00;100728.66;689422;28;2001;-65
2022/12/25 01:29:51;;;;;;;8.63;3.28;;;;;;;7.66;100.00;100729.66;689837;28;837;-65
2022/12/25 01:30:11;;;;;;;8.53;3.40;;;;;;;7.63;100.00;100724.44;688267;28;1012;-65
2022/12/25 01:30:32;;;;;;;8.32;3.20;;;;;;;7.58;100.00;100726.13;688992;28;905;-65
2022/12/25 01:30:52;;;;;;;7.83;3.20;;;;;;;7.59;100.00;100723.53;688770;28;5289;-64
2022/12/25 01:31:15;;;;;;;7.28;2.97;;;;;;;7.58;100.00;100728.72;689242;28;1203;-65
2022/12/25 01:31:35;;;;;;;6.30;2.80;;;;;;;7.54;100.00;100724.34;685679;28;991;-64
2022/12/25 01:31:55;;;;;;;6.72;2.97;;;;;;;7.53;100.00;100735.59;685995;28;1352;-65
2022/12/25 01:32:16;;;;;;;8.40;3.17;;;;;;;7.49;100.00;100735.59;686816;28;841;-65
2022/12/25 01:32:36;;;;;;;9.07;3.25;;;;;;;7.54;100.00;100729.56;686617;28;834;-65
2022/12/25 01:32:57;;;;;;;8.23;3.00;;;;;;;7.54;100.00;100729.56;685941;28;1109;-65
2022/12/25 01:33:17;;;;;;;6.95;3.00;;;;;;;7.54;100.00;100734.75;686110;28;939;-64
2022/12/25 01:33:39;;;;;;;7.33;3.00;;;;;;;7.52;100.00;100726.94;687040;28;1083;-65
2022/12/25 01:33:59;;;;;;;6.03;3.08;;;;;;;7.52;100.00;100731.25;686734;28;4422;-65
2022/12/25 01:34:19;;;;;;;9.97;3.27;;;;;;;7.58;100.00;100728.72;690100;28;865;-65
2022/12/25 01:34:40;;;;;;;8.83;3.10;;;;;;;7.62;100.00;100730.50;689835;28;836;-64
2022/12/25 01:35:00;;;;;;;6.97;3.03;;;;;;;7.60;100.00;100735.69;685658;28;1275;-65
2022/12/25 01:35:20;;;;;;;7.00;3.10;;;;;;;7.61;100.00;100726.16;682708;28;1261;-64
2022/12/25 01:35:41;;;;;;;8.57;3.10;;;;;;;7.64;100.00;100732.25;683921;28;1407;-64
2022/12/25 01:36:01;;;;;;;9.77;3.37;;;;;;;7.62;100.00;100730.50;682957;28;1031;-65
2022/12/25 01:36:23;;;;;;;7.93;2.97;;;;;;;7.59;100.00;100733.94;683378;28;976;-65
2022/12/25 01:36:44;;;;;;;7.55;3.10;;;;;;;7.59;100.00;100725.28;682880;28;4402;-65
2022/12/25 01:37:04;;;;;;;8.03;3.00;;;;;;;7.59;100.00;100733.09;683775;28;1148;-65
2022/12/25 01:37:24;;;;;;;9.20;3.20;;;;;;;7.59;100.00;100730.47;686788;28;821;-65
2022/12/25 01:37:45;;;;;;;9.47;3.10;;;;;;;7.57;100.00;100730.44;689405;28;923;-65
2022/12/25 01:38:05;;;;;;;9.02;3.05;;;;;;;7.57;100.00;100729.56;690043;28;979;-65
2022/12/25 01:38:26;;;;;;;7.70;2.80;;;;;;;7.57;100.00;100726.97;689359;28;853;-64
2022/12/25 01:38:47;;;;;;;7.63;2.92;;;;;;;7.56;100.00;100727.81;688355;28;4883;-66
2022/12/25 01:39:07;;;;;;;7.50;3.10;;;;;;;7.60;100.00;100724.41;687947;28;1120;-65
2022/12/25 01:39:27;;;;;;;7.57;3.10;;;;;;;7.64;100.00;100723.56;689907;28;892;-64
2022/12/25 01:39:48;;;;;;;6.23;3.03;;;;;;;7.71;100.00;100722.75;688927;28;4392;-65
2022/12/25 01:40:09;;;;;;;7.47;3.22;;;;;;;7.75;100.00;100729.72;688842;28;1349;-64
2022/12/25 01:40:32;;;;;;;7.97;3.08;;;;;;;7.84;100.00;100732.41;687587;28;1254;-65
2022/12/25 01:40:53;;;;;;;7.55;2.83;;;;;;;7.85;100.00;100722.88;689204;28;797;-65
2022/12/25 01:41:15;;;;;;;6.63;2.80;;;;;;;7.83;100.00;100722.84;688054;28;1071;-65
2022/12/25 01:41:35;;;;;;;7.93;3.25;;;;;;;7.81;100.00;100728.91;689669;28;915;-65
2022/12/25 01:41:56;;;;;;;9.13;3.20;;;;;;;7.80;100.00;100717.63;688261;28;929;-65
2022/12/25 01:42:18;;;;;;;9.02;2.97;;;;;;;7.77;100.00;100722.81;688771;28;1051;-65
2022/12/25 01:42:39;;;;;;;7.63;2.80;;;;;;;7.78;100.00;100718.47;687903;28;972;-65